createdAt,value
2019-02-09T00:00:00.622Z,90.20
2019-02-09T00:05:04.988Z,90.10
2019-02-09T00:10:09.180Z,90.00
2019-02-09T00:15:12.969Z,90.10
2019-02-09T00:20:16.904Z,90.10
2019-02-09T00:25:20.668Z,90.10
2019-02-09T00:30:27.865Z,88.80
2019-02-09T00:35:31.773Z,87.80
2019-02-09T00:40:35.513Z,87.50
2019-02-09T00:45:39.209Z,87.20
2019-02-09T00:50:42.888Z,85.90
2019-02-09T00:55:46.633Z,86.30
2019-02-09T01:00:50.383Z,86.50
2019-02-09T01:05:54.680Z,86.60
2019-02-09T01:10:59.259Z,86.80
2019-02-09T01:16:03.016Z,87.10
2019-02-09T01:21:06.770Z,87.70
2019-02-09T01:26:10.592Z,87.80
2019-02-09T01:31:14.285Z,87.60
2019-02-09T01:36:18.272Z,87.80
2019-02-09T01:41:22.608Z,88.90
2019-02-09T01:46:26.418Z,87.80
2019-02-09T01:51:30.110Z,88.00
2019-02-09T01:56:33.813Z,87.80
2019-02-09T02:01:37.656Z,87.80
2019-02-09T02:06:41.631Z,88.20
2019-02-09T02:11:45.335Z,87.90
2019-02-09T02:16:49.028Z,87.30
2019-02-09T02:21:52.825Z,86.90
2019-02-09T02:26:56.616Z,84.60
2019-02-09T02:32:00.658Z,84.10
2019-02-09T02:37:04.435Z,84.20
2019-02-09T02:42:08.441Z,84.90
2019-02-09T02:47:12.121Z,87.30
2019-02-09T02:52:16.618Z,87.70
2019-02-09T02:57:20.351Z,89.10
2019-02-09T03:02:24.100Z,89.10
2019-02-09T03:07:28.044Z,89.20
2019-02-09T03:12:31.740Z,90.00
2019-02-09T03:17:35.448Z,90.10
2019-02-09T03:22:39.400Z,90.10
2019-02-09T03:27:43.103Z,90.30
2019-02-09T03:32:46.951Z,90.70
2019-02-09T03:37:50.755Z,90.90
2019-02-09T03:42:54.688Z,91.10
2019-02-09T03:47:59.310Z,91.20
2019-02-09T03:53:03.153Z,90.90
2019-02-09T03:58:07.753Z,91.00
2019-02-09T04:03:11.564Z,91.30
2019-02-09T04:08:15.577Z,91.50
2019-02-09T04:13:19.304Z,91.70
2019-02-09T04:18:23.084Z,91.70
2019-02-09T04:23:26.785Z,91.70
2019-02-09T04:28:30.452Z,91.50
2019-02-09T04:33:34.103Z,91.20
2019-02-09T04:38:37.771Z,91.20
2019-02-09T04:43:41.436Z,90.70
2019-02-09T04:48:45.108Z,90.30
2019-02-09T04:53:48.778Z,90.40
2019-02-09T04:58:52.452Z,90.10
2019-02-09T05:03:56.191Z,89.90
2019-02-09T05:08:59.847Z,89.00
2019-02-09T05:14:03.586Z,88.10
2019-02-09T05:19:07.251Z,88.80
2019-02-09T05:24:10.921Z,88.10
2019-02-09T05:29:14.902Z,87.70
2019-02-09T05:34:18.619Z,88.80
2019-02-09T05:39:22.307Z,88.90
2019-02-09T05:44:25.970Z,89.60
2019-02-09T05:49:29.709Z,90.00
2019-02-09T05:54:33.406Z,89.90
2019-02-09T05:59:37.077Z,90.20
2019-02-09T06:04:41.048Z,90.00
2019-02-09T06:09:44.712Z,90.10
2019-02-09T06:14:48.693Z,90.40
2019-02-09T06:19:52.462Z,90.70
2019-02-09T06:24:56.143Z,90.50
2019-02-09T06:29:59.842Z,90.80
2019-02-09T06:35:03.977Z,90.90
2019-02-09T06:40:08.799Z,90.80
2019-02-09T06:45:15.322Z,91.00
2019-02-09T06:50:29.883Z,91.10
2019-02-09T06:55:33.603Z,91.10
2019-02-09T07:00:37.271Z,91.40
2019-02-09T07:05:41.034Z,91.70
2019-02-09T07:10:44.798Z,91.60
2019-02-09T07:15:48.606Z,91.50
2019-02-09T07:20:52.405Z,91.40
2019-02-09T07:25:56.176Z,91.80
2019-02-09T07:30:59.988Z,92.30
2019-02-09T07:36:03.973Z,91.70
2019-02-09T07:41:07.712Z,91.80
2019-02-09T07:46:11.393Z,91.60
2019-02-09T07:51:15.066Z,91.70
2019-02-09T07:56:19.063Z,91.80
2019-02-09T08:01:22.959Z,91.60
2019-02-09T08:06:26.753Z,91.90
2019-02-09T08:11:30.799Z,91.60
2019-02-09T08:16:34.820Z,92.90
2019-02-09T08:21:38.569Z,91.70
2019-02-09T08:26:42.352Z,91.80
2019-02-09T08:31:46.433Z,91.40
2019-02-09T08:36:50.466Z,91.90
2019-02-09T08:41:54.135Z,91.10
2019-02-09T08:46:57.813Z,90.20
2019-02-09T08:52:01.556Z,90.00
2019-02-09T08:57:05.319Z,90.80
2019-02-09T09:02:09.090Z,90.50
2019-02-09T09:07:12.838Z,89.20
2019-02-09T09:12:16.535Z,79.50
2019-02-09T09:17:20.461Z,75.70
2019-02-09T09:22:24.371Z,61.70
2019-02-09T09:27:28.139Z,49.20
2019-02-09T09:32:31.841Z,42.70
2019-02-09T09:37:35.670Z,40.10
2019-02-09T09:42:39.585Z,39.60
2019-02-09T09:47:43.522Z,40.10
2019-02-09T09:52:47.359Z,38.20
2019-02-09T09:57:51.612Z,34.20
2019-02-09T10:02:55.481Z,33.80
2019-02-09T10:07:59.652Z,31.60
2019-02-09T10:13:03.704Z,31.00
2019-02-09T10:18:07.535Z,30.30
2019-02-09T10:23:17.291Z,31.00
2019-02-09T10:28:24.232Z,30.70
2019-02-09T10:33:30.920Z,34.30
2019-02-09T10:38:34.606Z,33.70
2019-02-09T10:43:38.879Z,33.40
2019-02-09T10:48:42.770Z,34.20
2019-02-09T10:53:46.793Z,35.20
2019-02-09T10:58:50.556Z,35.50
2019-02-09T11:03:54.480Z,38.60
2019-02-09T11:08:58.232Z,37.20
2019-02-09T11:14:02.195Z,37.40
2019-02-09T11:19:05.983Z,36.50
2019-02-09T11:24:10.038Z,40.10
2019-02-09T11:29:13.859Z,41.00
2019-02-09T11:34:17.665Z,38.70
2019-02-09T11:39:21.814Z,39.30
2019-02-09T11:44:25.815Z,36.50
2019-02-09T11:49:29.586Z,35.10
2019-02-09T11:54:33.313Z,36.20
2019-02-09T11:59:37.097Z,34.20
2019-02-09T12:04:41.677Z,34.20
2019-02-09T12:09:48.611Z,35.40
2019-02-09T12:14:52.324Z,34.10
2019-02-09T12:19:57.571Z,36.40
2019-02-09T12:25:01.686Z,40.40
2019-02-09T12:30:07.480Z,44.10
2019-02-09T12:35:12.145Z,46.90
2019-02-09T12:40:21.006Z,49.00
2019-02-09T12:45:25.224Z,53.10
2019-02-09T18:25:51.382Z,86.00
2019-02-09T18:30:55.213Z,86.50
2019-02-09T18:35:59.161Z,86.90
2019-02-09T18:41:02.943Z,87.20
2019-02-09T18:46:07.054Z,86.80
2019-02-09T18:51:10.744Z,87.00
2019-02-09T18:56:14.491Z,86.30
2019-02-09T19:01:18.519Z,85.90
2019-02-09T19:06:22.497Z,85.70
2019-02-09T19:11:27.001Z,85.90
2019-02-09T19:16:30.784Z,85.40
2019-02-09T19:21:34.915Z,85.50
2019-02-09T19:26:38.701Z,85.60
2019-02-09T19:31:42.375Z,85.90
2019-02-09T19:36:46.136Z,86.10
2019-02-09T19:41:50.256Z,86.70
2019-02-09T19:46:53.996Z,86.70
2019-02-09T19:51:58.100Z,87.10
2019-02-09T19:57:02.051Z,87.30
2019-02-09T20:02:05.884Z,90.40
2019-02-09T20:07:10.027Z,90.80
2019-02-09T20:12:13.845Z,87.70
2019-02-09T20:17:17.714Z,88.00
2019-02-09T20:22:21.461Z,88.90
2019-02-09T20:27:25.456Z,88.00
2019-02-09T20:32:29.247Z,87.80
2019-02-09T20:37:36.058Z,87.80
2019-02-09T20:42:39.835Z,87.60
2019-02-09T20:47:49.590Z,87.70
2019-02-09T20:52:49.314Z,87.50
2019-02-09T20:57:53.086Z,87.40
2019-02-09T21:02:57.196Z,89.40
2019-02-09T21:08:01.053Z,88.80
2019-02-09T21:13:06.088Z,89.50
2019-02-09T21:18:10.220Z,88.50
2019-02-09T21:23:14.016Z,88.10
2019-02-09T21:28:17.913Z,87.90
2019-02-09T21:33:21.738Z,88.90
2019-02-09T21:38:25.621Z,89.10
2019-02-09T21:43:29.996Z,89.50
2019-02-09T21:48:33.761Z,90.00
2019-02-09T21:53:37.436Z,90.40
2019-02-09T21:58:41.365Z,90.40
2019-02-09T22:03:45.052Z,90.30
2019-02-09T22:08:48.817Z,90.60
2019-02-09T22:13:52.539Z,90.60
2019-02-09T22:18:56.347Z,90.90
2019-02-09T22:24:00.476Z,91.10
2019-02-09T22:29:04.365Z,91.30
2019-02-09T22:34:08.308Z,91.50
2019-02-09T22:39:12.079Z,92.00
2019-02-09T22:44:15.790Z,92.00
2019-02-09T22:49:19.464Z,92.00
2019-02-09T22:54:23.164Z,92.00
2019-02-09T22:59:26.984Z,91.90
2019-02-09T23:05:12.355Z,92.20
2019-02-09T23:10:16.357Z,92.50
2019-02-09T23:15:20.061Z,92.60
2019-02-09T23:20:23.774Z,92.60
2019-02-09T23:25:27.701Z,92.80
2019-02-09T23:30:31.432Z,93.10
2019-02-09T23:35:35.159Z,93.30
2019-02-09T23:40:38.875Z,93.40
2019-02-09T23:45:42.552Z,93.40
2019-02-09T23:50:46.248Z,93.60
2019-02-09T23:55:50.031Z,93.60
